Norfolk, New York
Current Conditions -  °F | °C
As of 11:53 AM on Tuesday 27 Jan 2015 (Local Time) from KMSS Reporting Station
Clear Clear  
Wind Chill: -10°   Ceiling: Unl
Heat Index:   Visibility: 10mi
Dew Point: -3°   Wind: 20mph
Humidity: 59%   Direction: 40°NE
Pressure: 30.08"   Gusts: NA
Location:  44.8°N, 74.99°W
Report Text: KMSS 271653Z AUTO 04017KT 10SM CLR M13/M19 A3008 RMK AO2 PK WND 04027/1624 SLP198 T11281194
Loading
Personal Weather Stations






























Interactive Weather Map New forecast layout! Learn more

10-Day Weather Forecast

Advertisements
Track Severe Weather on mobile